Time;durP1;ratioP1;P1;durP2;ratioP2;P2;SDS_P1;SDS_P2;PMS_P1;PMS_P2;Temp;Humidity;BMP_temperature;BMP_pressure;BME280_temperature;BME280_humidity;BME280_pressure;Samples;Min_cycle;Max_cycle;Signal;HPM_P1;HPM_P2
2023/12/10 00:00:36;;;;;;;15.30;2.40;;;;;;;;;;5048397;28;20457;-72
2023/12/10 00:03:03;;;;;;;14.43;2.53;;;;;;;;;;5045344;28;20431;-72
2023/12/10 00:05:30;;;;;;;13.18;2.63;;;;;;;;;;5039936;28;20787;-72
2023/12/10 00:07:58;;;;;;;15.00;3.03;;;;;;;;;;5047545;28;20520;-72
2023/12/10 00:10:25;;;;;;;14.20;2.57;;;;;;;;;;5044424;28;20433;-72
2023/12/10 00:12:52;;;;;;;12.52;2.38;;;;;;;;;;5047138;28;20429;-72
2023/12/10 00:15:19;;;;;;;14.32;2.75;;;;;;;;;;5045596;28;20437;-72
2023/12/10 00:17:47;;;;;;;16.83;2.70;;;;;;;;;;5047807;28;20448;-72
2023/12/10 00:20:14;;;;;;;15.40;2.57;;;;;;;;;;5029951;28;20432;-72
2023/12/10 00:22:41;;;;;;;18.23;2.75;;;;;;;;;;5042782;28;20483;-72
2023/12/10 00:25:09;;;;;;;15.70;2.72;;;;;;;;;;5040505;28;20834;-72
2023/12/10 00:27:36;;;;;;;18.63;3.25;;;;;;;;;;5047596;28;20433;-72
2023/12/10 00:30:04;;;;;;;16.90;3.15;;;;;;;;;;5045563;28;20441;-72
2023/12/10 00:32:32;;;;;;;16.40;3.42;;;;;;;;;;5045481;28;20934;-72
2023/12/10 00:34:59;;;;;;;15.50;3.22;;;;;;;;;;5049638;28;20433;-73
2023/12/10 00:37:27;;;;;;;14.43;3.20;;;;;;;;;;5056157;28;20433;-72
2023/12/10 00:39:55;;;;;;;16.73;2.80;;;;;;;;;;5029534;28;20429;-72
2023/12/10 00:42:22;;;;;;;20.77;3.25;;;;;;;;;;5045099;28;20496;-73
2023/12/10 00:44:50;;;;;;;21.60;3.40;;;;;;;;;;5028634;28;20443;-72
2023/12/10 00:47:17;;;;;;;15.77;2.97;;;;;;;;;;5051300;28;20759;-72
2023/12/10 00:49:45;;;;;;;16.33;3.50;;;;;;;;;;5044766;28;20479;-72
2023/12/10 00:52:12;;;;;;;15.63;3.17;;;;;;;;;;5043693;28;20427;-72
2023/12/10 00:54:40;;;;;;;21.15;4.18;;;;;;;;;;5058010;28;20946;-72
2023/12/10 00:57:07;;;;;;;18.40;3.53;;;;;;;;;;5027184;28;20439;-73
2023/12/10 00:59:34;;;;;;;17.30;3.67;;;;;;;;;;5038363;28;20487;-72
2023/12/10 01:02:01;;;;;;;15.63;3.70;;;;;;;;;;5035711;28;20460;-71
2023/12/10 01:04:29;;;;;;;19.27;3.78;;;;;;;;;;5059572;28;21292;-71
2023/12/10 01:06:56;;;;;;;15.63;3.17;;;;;;;;;;5047672;28;20439;-72
2023/12/10 01:09:23;;;;;;;19.23;3.50;;;;;;;;;;5047742;28;20508;-72
2023/12/10 01:11:50;;;;;;;18.92;3.42;;;;;;;;;;5055658;28;21114;-72
2023/12/10 01:14:17;;;;;;;17.77;3.80;;;;;;;;;;5049983;28;20429;-72
2023/12/10 01:16:45;;;;;;;17.65;3.60;;;;;;;;;;5050767;28;20477;-72
2023/12/10 01:19:12;;;;;;;20.05;3.90;;;;;;;;;;5047835;28;20504;-72
2023/12/10 01:21:39;;;;;;;20.15;4.03;;;;;;;;;;5046547;28;20930;-72
2023/12/10 01:24:08;;;;;;;20.55;3.13;;;;;;;;;;5049896;28;20430;-73
2023/12/10 01:26:35;;;;;;;18.48;3.72;;;;;;;;;;5052095;28;20898;-72
2023/12/10 01:29:02;;;;;;;20.27;3.95;;;;;;;;;;5050563;28;20521;-72
2023/12/10 01:31:34;;;;;;;18.75;4.30;;;;;;;;;;5065153;28;20423;-72
2023/12/10 01:34:01;;;;;;;25.90;4.15;;;;;;;;;;5033845;28;20502;-73
2023/12/10 01:36:28;;;;;;;25.17;4.22;;;;;;;;;;5056667;28;20430;-72
2023/12/10 01:38:57;;;;;;;19.75;3.80;;;;;;;;;;5051433;28;20437;-72
2023/12/10 01:41:25;;;;;;;20.70;3.90;;;;;;;;;;5053106;28;20437;-72
2023/12/10 01:43:53;;;;;;;17.10;3.83;;;;;;;;;;5028182;28;20431;-72
2023/12/10 01:46:23;;;;;;;19.25;3.40;;;;;;;;;;5060952;28;20443;-72
2023/12/10 01:48:52;;;;;;;19.85;4.03;;;;;;;;;;5056594;28;20818;-72
2023/12/10 01:51:19;;;;;;;17.52;3.55;;;;;;;;;;5055222;28;20437;-72
2023/12/10 01:53:46;;;;;;;21.10;4.22;;;;;;;;;;5036470;28;20437;-72
2023/12/10 01:56:14;;;;;;;20.80;3.50;;;;;;;;;;5049868;28;20520;-72
2023/12/10 01:58:41;;;;;;;18.35;4.38;;;;;;;;;;5045219;28;20509;-72
2023/12/10 02:01:08;;;;;;;21.73;3.83;;;;;;;;;;5028754;28;21064;-72
2023/12/10 02:03:36;;;;;;;19.27;3.38;;;;;;;;;;5045281;28;20499;-72
2023/12/10 02:06:03;;;;;;;15.38;3.38;;;;;;;;;;5055847;28;20507;-72
2023/12/10 02:08:31;;;;;;;21.13;3.80;;;;;;;;;;5054265;28;20515;-72
2023/12/10 02:11:00;;;;;;;20.10;4.05;;;;;;;;;;5050165;28;20870;-72
2023/12/10 02:13:27;;;;;;;18.65;3.40;;;;;;;;;;5048210;28;20437;-72
2023/12/10 02:15:55;;;;;;;25.02;4.15;;;;;;;;;;5024258;28;20480;-72
2023/12/10 02:18:22;;;;;;;20.00;4.15;;;;;;;;;;5049325;28;20520;-72
2023/12/10 02:20:50;;;;;;;19.40;3.95;;;;;;;;;;5028799;28;20462;-72
2023/12/10 02:23:17;;;;;;;18.60;4.15;;;;;;;;;;5051936;28;20921;-72
2023/12/10 02:25:44;;;;;;;21.13;4.25;;;;;;;;;;5049477;28;20522;-72
2023/12/10 02:28:11;;;;;;;22.40;4.13;;;;;;;;;;5047700;28;20981;-72
2023/12/10 02:30:39;;;;;;;18.23;3.58;;;;;;;;;;5037566;28;20436;-72
2023/12/10 02:33:06;;;;;;;18.33;3.45;;;;;;;;;;5043131;28;20527;-72
2023/12/10 02:35:33;;;;;;;17.48;3.65;;;;;;;;;;5055823;28;20437;-72
2023/12/10 02:38:03;;;;;;;19.98;3.75;;;;;;;;;;5038087;28;20461;-71
2023/12/10 02:40:30;;;;;;;22.08;3.63;;;;;;;;;;5049286;28;20477;-71
2023/12/10 02:42:57;;;;;;;21.05;3.58;;;;;;;;;;5062189;28;20514;-72
2023/12/10 02:45:25;;;;;;;15.00;3.20;;;;;;;;;;5055675;28;20427;-72
2023/12/10 02:47:52;;;;;;;19.73;3.90;;;;;;;;;;5033407;28;20432;-71
2023/12/10 02:50:19;;;;;;;20.80;4.20;;;;;;;;;;5054166;28;20438;-72
2023/12/10 02:52:46;;;;;;;24.42;3.63;;;;;;;;;;5040540;28;20441;-71
2023/12/10 02:55:13;;;;;;;23.00;4.18;;;;;;;;;;5051214;28;20503;-72
2023/12/10 02:57:41;;;;;;;12.55;2.88;;;;;;;;;;5042881;28;20440;-71
2023/12/10 03:00:08;;;;;;;16.45;3.88;;;;;;;;;;5038713;28;20513;-71
2023/12/10 03:02:36;;;;;;;20.35;3.58;;;;;;;;;;5041216;28;21456;-71
2023/12/10 03:05:03;;;;;;;20.73;3.53;;;;;;;;;;5048751;28;20429;-71
2023/12/10 03:07:30;;;;;;;20.17;3.72;;;;;;;;;;5057561;28;20459;-71
2023/12/10 03:09:58;;;;;;;14.07;3.38;;;;;;;;;;5056329;28;20493;-73
2023/12/10 03:12:25;;;;;;;13.45;2.88;;;;;;;;;;5044191;28;20524;-71
2023/12/10 03:14:52;;;;;;;14.05;3.10;;;;;;;;;;5035472;28;20442;-71
2023/12/10 03:17:20;;;;;;;14.88;3.10;;;;;;;;;;5056661;28;20508;-71
2023/12/10 03:19:47;;;;;;;14.40;2.67;;;;;;;;;;5046214;28;20512;-71
2023/12/10 03:22:14;;;;;;;11.53;2.53;;;;;;;;;;5042104;28;20499;-71
2023/12/10 03:24:41;;;;;;;10.98;2.50;;;;;;;;;;5053585;28;20485;-71
2023/12/10 03:27:08;;;;;;;12.25;2.65;;;;;;;;;;5051809;28;20891;-71
2023/12/10 03:29:35;;;;;;;16.50;2.92;;;;;;;;;;5053955;28;20440;-71
2023/12/10 03:32:03;;;;;;;11.73;2.72;;;;;;;;;;5045001;28;20444;-71
2023/12/10 03:34:30;;;;;;;10.00;2.38;;;;;;;;;;5042856;28;20433;-71
2023/12/10 03:36:58;;;;;;;13.23;2.33;;;;;;;;;;5056397;28;20856;-71
2023/12/10 03:39:25;;;;;;;9.25;2.50;;;;;;;;;;5048089;28;20512;-71
2023/12/10 03:41:53;;;;;;;8.27;1.67;;;;;;;;;;5058445;28;20507;-71
2023/12/10 03:44:20;;;;;;;11.50;2.20;;;;;;;;;;5051798;28;20455;-71
2023/12/10 03:46:47;;;;;;;12.70;2.42;;;;;;;;;;5031800;28;20787;-71
2023/12/10 03:49:14;;;;;;;11.60;2.20;;;;;;;;;;5042818;28;20436;-71
2023/12/10 03:51:42;;;;;;;7.25;1.80;;;;;;;;;;5057465;28;20437;-71
2023/12/10 03:54:09;;;;;;;13.73;2.60;;;;;;;;;;5038913;28;20477;-71
2023/12/10 03:56:36;;;;;;;11.02;2.20;;;;;;;;;;5020140;28;20433;-70
2023/12/10 03:59:03;;;;;;;10.77;2.30;;;;;;;;;;5047383;28;20505;-71
2023/12/10 04:01:31;;;;;;;9.30;1.88;;;;;;;;;;5048241;28;20433;-71
2023/12/10 04:03:58;;;;;;;11.10;1.92;;;;;;;;;;5045073;28;20417;-71
2023/12/10 04:06:26;;;;;;;10.63;2.08;;;;;;;;;;5044749;28;20465;-71
2023/12/10 04:08:54;;;;;;;9.55;2.08;;;;;;;;;;5050037;28;20485;-70
2023/12/10 04:11:22;;;;;;;6.80;1.98;;;;;;;;;;5052243;28;20850;-71
2023/12/10 04:13:49;;;;;;;8.45;2.20;;;;;;;;;;5031829;28;20433;-70
2023/12/10 04:16:27;;;;;;;9.87;2.07;;;;;;;;;;5048056;28;20459;-71
2023/12/10 04:18:54;;;;;;;10.98;2.30;;;;;;;;;;5053496;28;20435;-70
2023/12/10 04:21:22;;;;;;;11.10;2.40;;;;;;;;;;5051343;28;20488;-70
2023/12/10 04:23:50;;;;;;;12.32;2.22;;;;;;;;;;5047449;28;20517;-70
2023/12/10 04:26:17;;;;;;;6.38;1.70;;;;;;;;;;5047570;28;20436;-70
2023/12/10 04:28:45;;;;;;;14.00;2.95;;;;;;;;;;5041044;28;20440;-70
2023/12/10 04:31:12;;;;;;;13.23;2.50;;;;;;;;;;5057159;28;20438;-71
2023/12/10 04:33:39;;;;;;;14.10;2.30;;;;;;;;;;5055472;28;20430;-70
2023/12/10 04:36:07;;;;;;;14.53;2.83;;;;;;;;;;5040299;28;20514;-71
2023/12/10 04:38:34;;;;;;;12.90;2.20;;;;;;;;;;5043893;28;20457;-71
2023/12/10 04:41:02;;;;;;;14.15;2.95;;;;;;;;;;5032624;28;20918;-71
2023/12/10 04:43:29;;;;;;;12.50;2.43;;;;;;;;;;5053572;28;20455;-71
2023/12/10 04:45:56;;;;;;;14.00;2.38;;;;;;;;;;5061000;28;20488;-71
2023/12/10 04:48:23;;;;;;;12.13;2.67;;;;;;;;;;5048669;28;20431;-71
2023/12/10 04:50:51;;;;;;;11.33;2.27;;;;;;;;;;5039098;28;20473;-71
2023/12/10 04:53:18;;;;;;;12.90;2.75;;;;;;;;;;5047962;28;20902;-71
2023/12/10 04:55:45;;;;;;;9.70;2.05;;;;;;;;;;5056635;28;20431;-71
2023/12/10 04:58:12;;;;;;;10.38;2.33;;;;;;;;;;5051471;28;20428;-71
2023/12/10 05:00:40;;;;;;;14.23;2.40;;;;;;;;;;5043878;28;20486;-71
2023/12/10 05:03:08;;;;;;;14.87;2.53;;;;;;;;;;5048616;28;20547;-71
2023/12/10 05:05:35;;;;;;;11.10;2.70;;;;;;;;;;5041331;28;20426;-70
2023/12/10 05:08:03;;;;;;;19.63;3.15;;;;;;;;;;5041030;28;20512;-70
2023/12/10 05:10:30;;;;;;;11.05;2.88;;;;;;;;;;5062316;28;20431;-70
2023/12/10 05:12:59;;;;;;;18.33;3.07;;;;;;;;;;5045547;28;20786;-70
2023/12/10 05:15:26;;;;;;;16.10;2.80;;;;;;;;;;5058059;28;20433;-70
2023/12/10 05:17:53;;;;;;;11.57;2.15;;;;;;;;;;5045378;28;20529;-70
2023/12/10 05:20:21;;;;;;;13.02;2.88;;;;;;;;;;5048496;28;20975;-70
2023/12/10 05:22:48;;;;;;;13.75;2.58;;;;;;;;;;5052269;28;20431;-70
2023/12/10 05:25:15;;;;;;;12.60;2.88;;;;;;;;;;5050314;28;20425;-70
2023/12/10 05:27:42;;;;;;;13.90;3.10;;;;;;;;;;5045453;28;20433;-70
2023/12/10 05:30:11;;;;;;;12.50;2.80;;;;;;;;;;5049070;28;20437;-70
2023/12/10 05:32:38;;;;;;;13.00;2.57;;;;;;;;;;5046367;28;20513;-70
2023/12/10 05:35:05;;;;;;;12.35;3.05;;;;;;;;;;5048436;28;20437;-70
2023/12/10 05:37:33;;;;;;;14.52;3.53;;;;;;;;;;5048298;28;20430;-70
2023/12/10 05:40:00;;;;;;;14.20;2.37;;;;;;;;;;5047224;28;20776;-70
2023/12/10 05:42:27;;;;;;;14.80;3.20;;;;;;;;;;5049481;28;20429;-70
2023/12/10 05:44:56;;;;;;;14.63;2.97;;;;;;;;;;5047336;28;20558;-70
2023/12/10 05:47:23;;;;;;;16.30;3.35;;;;;;;;;;5050081;28;20463;-70
2023/12/10 05:49:51;;;;;;;16.33;3.20;;;;;;;;;;5054497;28;20433;-70
2023/12/10 05:52:18;;;;;;;14.07;2.67;;;;;;;;;;5051598;28;20525;-70
2023/12/10 05:54:45;;;;;;;17.52;3.83;;;;;;;;;;5055423;28;20437;-69
2023/12/10 05:57:13;;;;;;;12.68;2.88;;;;;;;;;;5051535;28;20834;-70
2023/12/10 05:59:40;;;;;;;17.52;2.55;;;;;;;;;;5048018;28;20429;-70
2023/12/10 06:02:07;;;;;;;12.17;2.60;;;;;;;;;;5066199;28;20485;-70
2023/12/10 06:04:34;;;;;;;13.07;3.00;;;;;;;;;;5049848;28;20436;-70
2023/12/10 06:07:01;;;;;;;10.13;2.92;;;;;;;;;;5057656;28;20927;-70
2023/12/10 06:09:29;;;;;;;16.13;3.17;;;;;;;;;;5048021;28;20433;-70
2023/12/10 06:11:56;;;;;;;14.53;2.70;;;;;;;;;;5053032;28;20425;-70
2023/12/10 06:14:23;;;;;;;14.27;3.05;;;;;;;;;;5049860;28;20429;-70
2023/12/10 06:16:51;;;;;;;19.35;2.92;;;;;;;;;;5045062;28;20834;-70
2023/12/10 06:19:18;;;;;;;15.77;2.70;;;;;;;;;;5045633;28;20421;-70
2023/12/10 06:21:45;;;;;;;16.50;2.60;;;;;;;;;;5047960;28;20827;-70
2023/12/10 06:24:13;;;;;;;13.55;2.80;;;;;;;;;;5047678;28;20433;-70
2023/12/10 06:26:40;;;;;;;18.38;2.88;;;;;;;;;;5056745;28;20444;-70
2023/12/10 06:29:07;;;;;;;11.05;2.72;;;;;;;;;;5047968;28;20432;-70
2023/12/10 06:31:34;;;;;;;15.15;2.88;;;;;;;;;;5053590;28;20554;-70
2023/12/10 06:34:01;;;;;;;14.57;2.85;;;;;;;;;;5048137;28;20460;-71
2023/12/10 06:36:29;;;;;;;13.85;2.92;;;;;;;;;;5042016;28;20545;-69
2023/12/10 06:38:56;;;;;;;13.50;2.70;;;;;;;;;;5037908;28;20421;-68
2023/12/10 06:41:23;;;;;;;14.38;3.08;;;;;;;;;;5048958;28;20430;-68
2023/12/10 06:43:50;;;;;;;15.32;2.72;;;;;;;;;;5044340;28;20834;-68
2023/12/10 06:46:18;;;;;;;15.57;3.10;;;;;;;;;;5046328;28;20758;-68
2023/12/10 06:48:45;;;;;;;23.23;2.75;;;;;;;;;;5060828;28;20446;-68
2023/12/10 06:51:13;;;;;;;14.32;2.67;;;;;;;;;;5041773;28;20842;-69
2023/12/10 06:53:41;;;;;;;12.25;3.13;;;;;;;;;;5037006;28;20773;-68
2023/12/10 06:56:08;;;;;;;13.43;2.83;;;;;;;;;;5047173;28;20923;-68
2023/12/10 06:58:36;;;;;;;13.18;3.58;;;;;;;;;;5044251;28;20462;-68
2023/12/10 07:01:03;;;;;;;12.57;2.60;;;;;;;;;;5040271;28;21104;-69
2023/12/10 07:03:31;;;;;;;14.63;2.92;;;;;;;;;;5024658;28;20461;-68
2023/12/10 07:06:00;;;;;;;13.57;2.40;;;;;;;;;;5046849;28;21253;-68
2023/12/10 07:08:28;;;;;;;14.15;2.75;;;;;;;;;;5043735;28;20437;-67
2023/12/10 07:10:55;;;;;;;13.80;3.30;;;;;;;;;;5048561;28;20433;-69
2023/12/10 07:13:22;;;;;;;14.18;2.65;;;;;;;;;;5043008;28;20485;-69
2023/12/10 07:15:49;;;;;;;12.75;2.90;;;;;;;;;;5036885;28;20459;-69
2023/12/10 07:18:17;;;;;;;14.65;2.97;;;;;;;;;;5058434;28;21012;-69
2023/12/10 07:20:44;;;;;;;14.83;2.63;;;;;;;;;;5048350;28;20447;-69
2023/12/10 07:23:11;;;;;;;12.00;2.95;;;;;;;;;;5042581;28;20964;-69
2023/12/10 07:25:38;;;;;;;12.75;2.75;;;;;;;;;;5047182;28;20436;-69
2023/12/10 07:28:06;;;;;;;11.52;2.45;;;;;;;;;;5025162;28;20608;-69
2023/12/10 07:30:34;;;;;;;16.50;2.75;;;;;;;;;;5036633;28;20681;-69
2023/12/10 07:33:01;;;;;;;13.27;2.67;;;;;;;;;;5032127;28;20466;-69
2023/12/10 07:35:28;;;;;;;10.15;2.35;;;;;;;;;;5043833;28;20457;-69
2023/12/10 07:37:56;;;;;;;13.20;2.58;;;;;;;;;;5039047;28;20511;-69
2023/12/10 07:40:23;;;;;;;12.77;2.42;;;;;;;;;;5038461;28;20433;-69
2023/12/10 07:42:51;;;;;;;10.82;2.60;;;;;;;;;;5023650;28;20425;-69
2023/12/10 07:45:18;;;;;;;9.47;2.33;;;;;;;;;;5042860;28;20430;-69
2023/12/10 07:47:46;;;;;;;12.07;2.33;;;;;;;;;;5042173;28;20436;-68
2023/12/10 07:50:13;;;;;;;12.38;2.80;;;;;;;;;;5034384;28;20442;-69
2023/12/10 07:52:40;;;;;;;11.83;2.73;;;;;;;;;;5040958;28;20460;-68
2023/12/10 07:55:07;;;;;;;16.52;2.45;;;;;;;;;;5039895;28;20559;-69
2023/12/10 07:57:35;;;;;;;10.55;2.40;;;;;;;;;;5041766;28;20433;-69
2023/12/10 08:00:05;;;;;;;10.20;2.10;;;;;;;;;;5040351;28;20426;-69
2023/12/10 08:02:32;;;;;;;14.15;2.20;;;;;;;;;;5045938;28;20443;-68
2023/12/10 08:05:00;;;;;;;13.18;2.65;;;;;;;;;;5043000;28;20456;-69
2023/12/10 08:07:27;;;;;;;12.73;2.60;;;;;;;;;;5038522;28;20438;-68
2023/12/10 08:09:55;;;;;;;12.77;2.65;;;;;;;;;;5043783;28;20433;-69
2023/12/10 08:12:23;;;;;;;10.63;2.10;;;;;;;;;;5044869;28;20521;-69
2023/12/10 08:14:50;;;;;;;16.15;2.40;;;;;;;;;;5041042;28;20432;-69
2023/12/10 08:17:17;;;;;;;16.38;2.80;;;;;;;;;;5046095;28;20515;-69
2023/12/10 08:19:44;;;;;;;10.63;2.30;;;;;;;;;;5040373;28;20500;-68
2023/12/10 08:22:13;;;;;;;12.23;2.28;;;;;;;;;;5038344;28;20913;-68
2023/12/10 08:24:41;;;;;;;15.82;2.33;;;;;;;;;;5025786;28;20429;-68
2023/12/10 08:27:08;;;;;;;14.18;2.85;;;;;;;;;;5047925;28;20433;-68
2023/12/10 08:29:35;;;;;;;11.07;2.37;;;;;;;;;;5039737;28;20437;-69
2023/12/10 08:32:02;;;;;;;12.32;2.28;;;;;;;;;;5044763;28;20456;-69
2023/12/10 08:34:30;;;;;;;10.13;2.53;;;;;;;;;;5042108;28;20484;-68
2023/12/10 08:36:57;;;;;;;14.73;2.70;;;;;;;;;;5046259;28;21136;-69
2023/12/10 08:39:24;;;;;;;13.75;2.42;;;;;;;;;;5031114;28;20889;-68
2023/12/10 08:41:52;;;;;;;10.93;2.78;;;;;;;;;;5045701;28;20431;-68
2023/12/10 08:44:19;;;;;;;12.85;2.92;;;;;;;;;;5046542;28;20519;-68
2023/12/10 08:46:47;;;;;;;8.55;2.22;;;;;;;;;;5047504;28;20429;-68
2023/12/10 08:49:14;;;;;;;8.60;2.07;;;;;;;;;;5047216;28;20494;-68
2023/12/10 08:51:41;;;;;;;10.32;2.25;;;;;;;;;;5031755;28;20491;-68
2023/12/10 08:54:09;;;;;;;13.23;2.08;;;;;;;;;;5031215;28;20813;-69
2023/12/10 08:56:36;;;;;;;13.60;2.83;;;;;;;;;;5043184;28;20433;-69
2023/12/10 08:59:04;;;;;;;8.95;2.08;;;;;;;;;;5046930;28;20465;-68
2023/12/10 09:01:31;;;;;;;12.70;2.45;;;;;;;;;;5046880;28;20806;-68
2023/12/10 09:03:59;;;;;;;11.80;2.42;;;;;;;;;;5040232;28;20438;-68
2023/12/10 09:06:27;;;;;;;11.35;2.42;;;;;;;;;;5025526;28;20528;-67
2023/12/10 09:08:54;;;;;;;14.10;2.80;;;;;;;;;;5045429;28;20518;-67
2023/12/10 09:11:21;;;;;;;11.30;2.10;;;;;;;;;;5040647;28;20904;-67
2023/12/10 09:13:48;;;;;;;12.32;2.53;;;;;;;;;;5043735;28;20921;-67
2023/12/10 09:16:18;;;;;;;11.27;2.63;;;;;;;;;;5042875;28;20433;-69
2023/12/10 09:18:45;;;;;;;9.98;2.05;;;;;;;;;;5030704;28;20843;-67
2023/12/10 09:21:13;;;;;;;11.60;2.53;;;;;;;;;;5047269;28;20525;-67
2023/12/10 09:23:41;;;;;;;8.50;2.53;;;;;;;;;;5048367;28;20425;-67
2023/12/10 09:26:08;;;;;;;11.02;2.35;;;;;;;;;;5049360;28;20541;-67
2023/12/10 09:28:35;;;;;;;9.23;2.20;;;;;;;;;;5029581;28;20782;-69
2023/12/10 09:31:02;;;;;;;11.77;2.20;;;;;;;;;;5024559;28;20825;-67
2023/12/10 09:33:31;;;;;;;9.75;2.10;;;;;;;;;;5047383;28;20561;-67
2023/12/10 09:35:58;;;;;;;8.55;2.35;;;;;;;;;;5048190;28;20435;-67
2023/12/10 09:38:25;;;;;;;9.17;1.97;;;;;;;;;;5041555;28;20887;-67
2023/12/10 09:40:53;;;;;;;8.73;2.40;;;;;;;;;;5045246;28;20429;-67
2023/12/10 09:43:20;;;;;;;9.02;2.08;;;;;;;;;;5026438;28;20514;-67
2023/12/10 09:45:47;;;;;;;7.95;2.15;;;;;;;;;;5038908;28;20506;-67
2023/12/10 09:48:15;;;;;;;11.50;2.47;;;;;;;;;;5040864;28;20863;-67
2023/12/10 09:50:42;;;;;;;11.23;2.65;;;;;;;;;;5048472;28;20459;-67
2023/12/10 09:53:09;;;;;;;16.42;2.47;;;;;;;;;;5046456;28;20437;-67
2023/12/10 09:55:38;;;;;;;11.05;2.35;;;;;;;;;;5046022;28;20429;-67
2023/12/10 09:58:05;;;;;;;11.23;2.13;;;;;;;;;;5047333;28;20564;-67
2023/12/10 10:00:32;;;;;;;11.80;2.33;;;;;;;;;;5043957;28;20436;-67
2023/12/10 10:03:01;;;;;;;10.52;2.42;;;;;;;;;;5040608;28;20843;-68
2023/12/10 10:05:28;;;;;;;10.48;2.40;;;;;;;;;;5041470;28;21109;-68
2023/12/10 10:07:56;;;;;;;10.73;2.35;;;;;;;;;;5042439;28;20466;-68
2023/12/10 10:10:25;;;;;;;10.10;2.33;;;;;;;;;;5044253;28;20508;-68
2023/12/10 10:12:54;;;;;;;8.10;2.08;;;;;;;;;;5051792;28;20437;-68
2023/12/10 10:15:28;;;;;;;11.57;2.70;;;;;;;;;;5036959;28;20429;-68
2023/12/10 10:17:56;;;;;;;10.45;2.45;;;;;;;;;;5034680;28;20473;-67
2023/12/10 10:20:24;;;;;;;11.50;2.50;;;;;;;;;;5046257;28;20439;-68
2023/12/10 10:22:52;;;;;;;10.70;2.78;;;;;;;;;;5033835;28;20425;-68
2023/12/10 10:25:20;;;;;;;10.77;2.70;;;;;;;;;;5035765;28;20491;-67
2023/12/10 10:27:50;;;;;;;7.38;2.30;;;;;;;;;;5016835;28;20517;-67
2023/12/10 10:30:17;;;;;;;10.02;2.50;;;;;;;;;;5033531;28;20514;-68
2023/12/10 10:32:45;;;;;;;11.52;2.55;;;;;;;;;;5040910;28;20429;-67
2023/12/10 10:35:12;;;;;;;13.00;2.88;;;;;;;;;;5045554;28;20433;-68
2023/12/10 10:37:40;;;;;;;11.55;2.50;;;;;;;;;;5042001;28;20425;-67
2023/12/10 10:40:07;;;;;;;9.45;2.40;;;;;;;;;;5037013;28;20853;-67
2023/12/10 10:42:35;;;;;;;10.57;2.28;;;;;;;;;;5039990;28;20438;-67
2023/12/10 10:45:03;;;;;;;9.47;1.87;;;;;;;;;;5031746;28;21000;-67
2023/12/10 10:47:32;;;;;;;13.30;2.80;;;;;;;;;;5042114;28;20433;-67
2023/12/10 10:50:01;;;;;;;7.88;2.17;;;;;;;;;;5038444;28;20915;-68
2023/12/10 10:52:49;;;;;;;10.38;2.28;;;;;;;;;;5020855;28;20592;-67
2023/12/10 10:55:17;;;;;;;6.80;1.92;;;;;;;;;;5041743;28;20506;-67
2023/12/10 10:57:44;;;;;;;7.57;2.47;;;;;;;;;;5040711;28;20515;-67
2023/12/10 11:00:17;;;;;;;10.93;2.30;;;;;;;;;;5040655;28;20491;-67
2023/12/10 11:02:53;;;;;;;11.40;2.03;;;;;;;;;;5046468;28;20428;-67
2023/12/10 11:05:33;;;;;;;11.18;2.15;;;;;;;;;;5035621;28;20437;-67
2023/12/10 11:08:03;;;;;;;10.10;2.30;;;;;;;;;;5041576;28;20525;-67
2023/12/10 11:10:32;;;;;;;8.23;2.17;;;;;;;;;;5039101;28;20435;-67
2023/12/10 11:13:00;;;;;;;10.55;2.08;;;;;;;;;;5039963;28;20443;-67
2023/12/10 11:15:30;;;;;;;10.17;2.40;;;;;;;;;;5037650;28;20578;-66
2023/12/10 11:18:05;;;;;;;9.52;2.30;;;;;;;;;;5045291;28;20429;-67
2023/12/10 11:20:43;;;;;;;11.23;2.17;;;;;;;;;;5047161;28;20974;-67
2023/12/10 11:23:12;;;;;;;10.00;2.42;;;;;;;;;;5046010;28;20426;-67
2023/12/10 11:25:40;;;;;;;10.13;2.33;;;;;;;;;;5044346;28;20424;-67
2023/12/10 11:28:11;;;;;;;12.15;2.60;;;;;;;;;;5039596;28;20449;-67
2023/12/10 11:30:39;;;;;;;13.13;2.83;;;;;;;;;;5038957;28;20444;-67
2023/12/10 11:33:08;;;;;;;9.43;2.40;;;;;;;;;;5042704;28;20968;-67
2023/12/10 11:35:36;;;;;;;6.53;2.42;;;;;;;;;;5045048;28;20881;-67
2023/12/10 11:38:04;;;;;;;6.90;2.20;;;;;;;;;;5043140;28;20425;-66
2023/12/10 11:40:32;;;;;;;8.15;2.30;;;;;;;;;;5036702;28;20432;-67
2023/12/10 11:43:06;;;;;;;8.88;2.17;;;;;;;;;;5044818;28;20425;-67
2023/12/10 11:45:34;;;;;;;8.10;2.20;;;;;;;;;;5044278;28;20428;-67
2023/12/10 11:48:01;;;;;;;10.70;2.13;;;;;;;;;;5024370;28;20430;-67
2023/12/10 11:50:32;;;;;;;12.52;2.60;;;;;;;;;;5022788;28;20561;-67
2023/12/10 11:52:59;;;;;;;8.63;2.10;;;;;;;;;;5036547;28;20433;-67
2023/12/10 11:55:27;;;;;;;12.52;2.30;;;;;;;;;;5043550;28;20437;-66
2023/12/10 11:57:56;;;;;;;7.95;1.83;;;;;;;;;;5044098;28;20438;-67
2023/12/10 12:00:24;;;;;;;10.15;2.20;;;;;;;;;;5030909;28;20473;-67
2023/12/10 12:02:52;;;;;;;8.77;2.10;;;;;;;;;;5043357;28;20479;-66
2023/12/10 12:05:20;;;;;;;9.25;2.50;;;;;;;;;;5044394;28;20436;-66
2023/12/10 12:07:50;;;;;;;10.50;2.25;;;;;;;;;;5041913;28;20433;-67
2023/12/10 12:10:17;;;;;;;11.85;2.47;;;;;;;;;;5041417;28;20445;-66
2023/12/10 12:12:46;;;;;;;11.90;2.38;;;;;;;;;;5036779;28;20484;-66
2023/12/10 12:15:14;;;;;;;8.90;2.42;;;;;;;;;;5041369;28;20432;-66
2023/12/10 12:17:42;;;;;;;14.02;2.50;;;;;;;;;;5042159;28;20510;-67
2023/12/10 12:20:17;;;;;;;9.27;2.15;;;;;;;;;;5043356;28;20436;-68
2023/12/10 12:22:45;;;;;;;12.25;2.13;;;;;;;;;;5040293;28;21005;-66
2023/12/10 12:25:16;;;;;;;11.63;2.35;;;;;;;;;;5041917;28;20429;-66
2023/12/10 12:27:43;;;;;;;13.00;1.98;;;;;;;;;;5045375;28;20937;-67
2023/12/10 12:30:11;;;;;;;12.45;2.25;;;;;;;;;;5038284;28;20486;-66
2023/12/10 12:32:38;;;;;;;11.35;2.33;;;;;;;;;;5044139;28;20497;-66
2023/12/10 12:35:06;;;;;;;13.57;2.73;;;;;;;;;;5040647;28;20458;-66
2023/12/10 12:37:33;;;;;;;13.07;2.10;;;;;;;;;;5044243;28;20457;-66
2023/12/10 12:40:00;;;;;;;10.77;2.53;;;;;;;;;;5037760;28;20533;-66
2023/12/10 12:42:31;;;;;;;11.40;2.28;;;;;;;;;;5025253;28;20457;-66
2023/12/10 12:44:59;;;;;;;9.93;2.03;;;;;;;;;;5042482;28;20486;-66
2023/12/10 12:47:26;;;;;;;10.75;2.35;;;;;;;;;;5036391;28;20440;-67
2023/12/10 12:49:55;;;;;;;11.38;2.30;;;;;;;;;;5045107;28;20433;-66
2023/12/10 12:52:22;;;;;;;8.52;2.28;;;;;;;;;;5042829;28;20495;-67
2023/12/10 12:54:49;;;;;;;12.77;2.40;;;;;;;;;;5038273;28;20905;-66
2023/12/10 12:57:17;;;;;;;15.02;2.85;;;;;;;;;;5029119;28;20431;-66
2023/12/10 12:59:44;;;;;;;10.65;2.28;;;;;;;;;;5043177;28;20425;-66
2023/12/10 13:02:12;;;;;;;12.70;2.72;;;;;;;;;;5049948;28;20518;-66
2023/12/10 13:04:40;;;;;;;11.88;2.45;;;;;;;;;;5048947;28;20475;-66
2023/12/10 13:07:07;;;;;;;12.18;2.38;;;;;;;;;;5037996;28;20434;-66
2023/12/10 13:09:35;;;;;;;10.95;2.60;;;;;;;;;;5031198;28;21049;-66
2023/12/10 13:12:03;;;;;;;11.52;2.50;;;;;;;;;;5036109;28;20447;-66
2023/12/10 13:14:30;;;;;;;14.52;2.50;;;;;;;;;;5037436;28;20850;-66
2023/12/10 13:16:57;;;;;;;12.37;2.50;;;;;;;;;;5039930;28;20483;-66
2023/12/10 13:19:25;;;;;;;16.20;2.95;;;;;;;;;;5054241;28;20430;-67
2023/12/10 13:21:52;;;;;;;13.38;3.17;;;;;;;;;;5039307;28;20424;-66
2023/12/10 13:24:20;;;;;;;14.93;3.28;;;;;;;;;;5042178;28;20939;-66
2023/12/10 13:26:48;;;;;;;12.02;2.75;;;;;;;;;;5042003;28;21015;-68
2023/12/10 13:29:15;;;;;;;15.27;3.03;;;;;;;;;;5047142;28;20868;-65
2023/12/10 13:31:42;;;;;;;12.63;2.83;;;;;;;;;;5042893;28;20465;-68
2023/12/10 13:34:09;;;;;;;14.00;3.27;;;;;;;;;;5042051;28;20500;-66
2023/12/10 13:36:39;;;;;;;14.23;2.80;;;;;;;;;;5027329;28;20518;-68
2023/12/10 13:39:06;;;;;;;12.40;2.95;;;;;;;;;;5044595;28;20491;-67
2023/12/10 13:41:33;;;;;;;17.80;3.10;;;;;;;;;;5045662;28;20431;-66
2023/12/10 13:44:01;;;;;;;11.73;2.45;;;;;;;;;;5044269;28;20436;-66
2023/12/10 13:46:28;;;;;;;12.30;3.00;;;;;;;;;;5048180;28;20425;-65
2023/12/10 13:48:56;;;;;;;14.07;2.42;;;;;;;;;;5047537;28;20463;-66
2023/12/10 13:51:24;;;;;;;12.60;3.00;;;;;;;;;;5046117;28;20425;-65
2023/12/10 13:53:51;;;;;;;11.23;2.60;;;;;;;;;;5043619;28;20465;-66
2023/12/10 13:56:19;;;;;;;16.23;3.03;;;;;;;;;;5037403;28;20433;-66
2023/12/10 13:58:46;;;;;;;10.40;2.90;;;;;;;;;;5047586;28;21162;-66
2023/12/10 14:01:15;;;;;;;9.70;2.22;;;;;;;;;;5035477;28;20447;-66
2023/12/10 14:03:43;;;;;;;13.70;3.20;;;;;;;;;;5026199;28;20457;-66
2023/12/10 14:06:10;;;;;;;16.90;3.00;;;;;;;;;;5038966;28;20460;-66
2023/12/10 14:08:37;;;;;;;14.60;3.05;;;;;;;;;;5042884;28;20443;-66
2023/12/10 14:11:04;;;;;;;13.88;3.25;;;;;;;;;;5043473;28;20508;-66
2023/12/10 14:13:32;;;;;;;11.55;2.50;;;;;;;;;;5044236;28;20468;-65
2023/12/10 14:15:59;;;;;;;16.27;2.70;;;;;;;;;;5037639;28;20439;-66
2023/12/10 14:18:26;;;;;;;16.17;2.93;;;;;;;;;;5042640;28;20517;-66
2023/12/10 14:20:53;;;;;;;12.65;2.80;;;;;;;;;;5049493;28;20428;-66
2023/12/10 14:23:21;;;;;;;13.43;2.60;;;;;;;;;;5023631;28;20748;-66
2023/12/10 14:25:48;;;;;;;16.15;2.95;;;;;;;;;;5042468;28;20446;-66
2023/12/10 14:28:15;;;;;;;11.75;2.63;;;;;;;;;;5040478;28;20516;-66
2023/12/10 14:30:42;;;;;;;13.13;2.70;;;;;;;;;;5045292;28;20543;-66
2023/12/10 14:33:10;;;;;;;15.43;3.20;;;;;;;;;;5038779;28;20961;-66